createdAt,value
2018-02-15T00:01:20.888Z,31.67
2018-02-15T00:03:48.503Z,34.20
2018-02-15T00:06:16.175Z,35.57
2018-02-15T00:08:43.724Z,35.47
2018-02-15T00:11:11.388Z,36.03
2018-02-15T00:13:39.052Z,34.07
2018-02-15T00:16:06.712Z,34.80
2018-02-15T00:18:34.381Z,36.13
2018-02-15T00:21:02.039Z,35.50
2018-02-15T00:23:29.714Z,34.93
2018-02-15T00:25:57.262Z,35.57
2018-02-15T00:28:24.820Z,36.50
2018-02-15T00:30:52.479Z,36.73
2018-02-15T00:33:20.147Z,37.67
2018-02-15T00:35:47.709Z,35.67
2018-02-15T00:38:15.260Z,36.23
2018-02-15T00:40:42.824Z,36.97
2018-02-15T00:43:10.490Z,35.00
2018-02-15T00:45:38.161Z,34.87
2018-02-15T00:48:05.816Z,36.90
2018-02-15T00:50:33.368Z,36.53
2018-02-15T00:53:00.918Z,35.13
2018-02-15T00:55:28.455Z,33.80
2018-02-15T00:57:56.012Z,36.87
2018-02-15T01:00:23.556Z,36.60
2018-02-15T01:02:51.107Z,35.90
2018-02-15T01:05:18.652Z,37.13
2018-02-15T01:07:46.199Z,36.57
2018-02-15T01:10:13.850Z,35.27
2018-02-15T01:12:41.523Z,35.73
2018-02-15T01:15:09.070Z,35.37
2018-02-15T01:17:36.626Z,38.00
2018-02-15T01:20:04.186Z,37.40
2018-02-15T01:22:31.742Z,36.03
2018-02-15T01:24:59.288Z,35.47
2018-02-15T01:27:26.882Z,36.10
2018-02-15T01:29:54.432Z,36.70
2018-02-15T01:32:22.002Z,35.30
2018-02-15T01:34:49.674Z,38.07
2018-02-15T01:37:17.325Z,38.43
2018-02-15T01:39:44.999Z,37.00
2018-02-15T01:42:12.650Z,38.20
2018-02-15T01:44:40.202Z,38.67
2018-02-15T01:47:07.966Z,36.93
2018-02-15T01:49:41.257Z,37.83
2018-02-15T01:52:08.828Z,39.37
2018-02-15T01:54:36.379Z,38.83
2018-02-15T01:57:03.931Z,42.03
2018-02-15T01:59:31.520Z,42.83
2018-02-15T02:01:59.076Z,43.73
2018-02-15T02:04:26.627Z,43.07
2018-02-15T02:06:54.181Z,44.20
2018-02-15T02:09:21.849Z,45.03
2018-02-15T02:11:49.400Z,42.90
2018-02-15T02:14:16.954Z,48.40
2018-02-15T02:16:44.513Z,47.47
2018-02-15T02:19:12.097Z,44.80
2018-02-15T02:21:39.658Z,47.00
2018-02-15T02:24:07.310Z,47.27
2018-02-15T02:26:34.870Z,46.83
2018-02-15T02:29:02.417Z,46.00
2018-02-15T02:31:29.980Z,44.37
2018-02-15T02:33:57.549Z,42.57
2018-02-15T02:36:25.099Z,41.00
2018-02-15T02:38:52.681Z,41.90
2018-02-15T02:41:20.229Z,37.13
2018-02-15T02:43:47.891Z,36.97
2018-02-15T02:46:15.561Z,36.27
2018-02-15T02:48:43.112Z,34.13
2018-02-15T02:51:10.741Z,34.37
2018-02-15T02:53:38.301Z,34.17
2018-02-15T02:56:05.908Z,34.70
2018-02-15T02:58:33.475Z,33.73
2018-02-15T03:01:01.125Z,33.33
2018-02-15T03:03:28.796Z,34.00
2018-02-15T03:05:56.348Z,34.27
2018-02-15T03:08:24.009Z,33.53
2018-02-15T03:10:51.568Z,36.73
2018-02-15T03:13:19.246Z,34.97
2018-02-15T03:15:46.813Z,36.37
2018-02-15T03:18:14.364Z,35.13
2018-02-15T03:20:41.916Z,34.23
2018-02-15T03:23:09.588Z,36.90
2018-02-15T03:25:37.236Z,34.33
2018-02-15T03:28:04.772Z,34.20
2018-02-15T03:30:32.345Z,36.00
2018-02-15T03:32:59.905Z,35.43
2018-02-15T03:35:27.453Z,35.17
2018-02-15T03:37:55.008Z,37.50
2018-02-15T03:40:22.594Z,34.87
2018-02-15T03:42:50.264Z,37.43
2018-02-15T03:45:17.821Z,35.70
2018-02-15T03:47:45.491Z,35.47
2018-02-15T03:50:13.068Z,36.57
2018-02-15T03:52:40.717Z,34.77
2018-02-15T03:55:08.380Z,38.33
2018-02-15T03:57:36.040Z,35.63
2018-02-15T04:00:03.607Z,33.73
2018-02-15T04:02:31.164Z,38.40
2018-02-15T04:04:58.728Z,37.37
2018-02-15T04:07:26.388Z,34.70
2018-02-15T04:09:53.949Z,35.10
2018-02-15T04:12:21.828Z,33.50
2018-02-15T04:14:49.397Z,33.47
2018-02-15T04:17:17.027Z,35.23
2018-02-15T04:19:44.708Z,33.50
2018-02-15T04:22:12.365Z,35.33
2018-02-15T04:24:39.925Z,37.43
2018-02-15T04:27:07.500Z,37.30
2018-02-15T04:29:35.134Z,34.50
2018-02-15T04:32:02.732Z,37.93
2018-02-15T04:34:30.312Z,37.60
2018-02-15T04:36:57.915Z,35.47
2018-02-15T04:39:25.613Z,38.63
2018-02-15T04:41:53.168Z,36.40
2018-02-15T04:44:20.748Z,35.90
2018-02-15T04:46:48.307Z,39.43
2018-02-15T04:49:15.849Z,37.07
2018-02-15T04:51:43.400Z,38.33
2018-02-15T04:54:10.950Z,39.20
2018-02-15T04:56:38.495Z,36.97
2018-02-15T04:59:06.044Z,40.50
2018-02-15T05:01:33.601Z,37.27
2018-02-15T05:04:01.149Z,36.83
2018-02-15T05:06:28.709Z,38.07
2018-02-15T05:08:56.279Z,37.67
2018-02-15T05:11:23.819Z,35.80
2018-02-15T05:13:51.372Z,38.23
2018-02-15T05:16:18.924Z,36.70
2018-02-15T05:18:46.549Z,36.37
2018-02-15T05:21:14.104Z,36.23
2018-02-15T05:23:41.652Z,32.67
2018-02-15T05:26:09.216Z,30.97
2018-02-15T05:28:36.765Z,30.07
2018-02-15T05:31:04.321Z,32.20
2018-02-15T05:33:31.867Z,30.87
2018-02-15T05:35:59.428Z,32.87
2018-02-15T05:38:26.977Z,30.10
2018-02-15T05:40:54.553Z,32.10
2018-02-15T05:43:22.259Z,32.40
2018-02-15T05:45:49.820Z,32.73
2018-02-15T05:48:17.380Z,32.10
2018-02-15T05:50:45.032Z,33.60
2018-02-15T05:53:12.585Z,31.67
2018-02-15T05:55:40.136Z,32.87
2018-02-15T05:58:07.706Z,35.37
2018-02-15T06:00:35.251Z,34.23
2018-02-15T06:03:02.820Z,36.67
2018-02-15T06:05:30.487Z,34.70
2018-02-15T06:07:58.155Z,33.87
2018-02-15T06:10:25.696Z,34.40
2018-02-15T06:12:53.268Z,32.30
2018-02-15T06:15:21.000Z,33.23
2018-02-15T06:17:48.544Z,31.83
2018-02-15T06:20:16.393Z,32.33
2018-02-15T06:22:44.337Z,34.73
2018-02-15T06:25:12.208Z,32.93
2018-02-15T06:27:40.054Z,34.30
2018-02-15T06:30:07.940Z,35.20
2018-02-15T06:32:35.722Z,32.07
2018-02-15T06:35:03.656Z,34.77
2018-02-15T06:37:31.543Z,33.40
2018-02-15T06:39:59.426Z,34.07
2018-02-15T06:42:27.276Z,33.97
2018-02-15T06:44:55.122Z,32.73
2018-02-15T06:47:22.908Z,34.60
2018-02-15T06:49:50.697Z,34.10
2018-02-15T06:52:18.534Z,35.03
2018-02-15T06:54:46.407Z,34.33
2018-02-15T06:57:14.345Z,36.53
2018-02-15T06:59:42.170Z,34.90
2018-02-15T07:02:10.010Z,37.90
2018-02-15T07:04:37.870Z,38.37
2018-02-15T07:07:05.753Z,35.33
2018-02-15T07:09:33.610Z,35.23
2018-02-15T07:12:02.399Z,35.83
2018-02-15T07:14:30.194Z,36.27
2018-02-15T07:16:58.033Z,36.03
2018-02-15T07:19:25.899Z,37.53
2018-02-15T07:21:53.766Z,39.47
2018-02-15T07:24:21.635Z,36.87
2018-02-15T07:26:49.427Z,36.47
2018-02-15T07:29:17.263Z,37.27
2018-02-15T07:31:45.235Z,36.87
2018-02-15T07:34:13.028Z,35.43
2018-02-15T07:36:40.867Z,36.67
2018-02-15T07:39:08.713Z,35.33
2018-02-15T07:41:36.586Z,38.03
2018-02-15T07:44:04.468Z,37.40
2018-02-15T07:46:32.336Z,37.90
2018-02-15T07:49:00.184Z,36.13
2018-02-15T07:51:28.069Z,40.00
2018-02-15T07:53:55.860Z,37.43
2018-02-15T07:56:23.703Z,36.37
2018-02-15T07:58:51.570Z,36.50
2018-02-15T08:01:19.524Z,37.23
2018-02-15T08:03:47.391Z,34.90
2018-02-15T08:06:15.274Z,36.13
2018-02-15T08:08:43.059Z,37.07
2018-02-15T08:11:10.869Z,37.83
2018-02-15T08:13:38.773Z,35.43
2018-02-15T08:16:06.568Z,36.67
2018-02-15T08:18:34.336Z,35.60
2018-02-15T08:21:02.171Z,35.60
2018-02-15T08:23:30.010Z,34.27
2018-02-15T08:25:57.801Z,32.30
2018-02-15T08:28:25.643Z,33.93
2018-02-15T08:30:53.434Z,34.40
2018-02-15T08:33:21.319Z,32.87
2018-02-15T08:35:49.271Z,30.70
2018-02-15T08:38:17.240Z,31.43
2018-02-15T08:40:45.085Z,33.30
2018-02-15T08:43:12.975Z,32.60
2018-02-15T08:45:40.845Z,31.57
2018-02-15T08:48:08.811Z,31.50
2018-02-15T08:50:36.699Z,30.43
2018-02-15T08:53:04.547Z,30.93
2018-02-15T08:55:32.413Z,31.23
2018-02-15T08:58:00.201Z,31.50
2018-02-15T09:00:27.963Z,29.67
2018-02-15T09:02:55.793Z,31.20
2018-02-15T09:05:23.679Z,31.07
2018-02-15T09:07:51.429Z,31.50
2018-02-15T09:10:19.310Z,32.03
2018-02-15T09:12:47.177Z,31.00
2018-02-15T09:15:15.008Z,31.00
2018-02-15T09:17:42.912Z,28.80
2018-02-15T09:20:10.707Z,29.67
2018-02-15T09:22:38.543Z,28.27
2018-02-15T09:25:06.335Z,29.57
2018-02-15T09:27:34.278Z,28.43
2018-02-15T09:30:02.218Z,28.43
2018-02-15T09:32:30.013Z,28.17
2018-02-15T09:34:57.879Z,28.07
2018-02-15T09:37:25.725Z,28.63
2018-02-15T09:39:53.619Z,29.03
2018-02-15T09:42:21.462Z,30.03
2018-02-15T09:44:50.066Z,28.97
2018-02-15T09:47:17.939Z,29.50
2018-02-15T09:49:45.762Z,27.77
2018-02-15T09:52:13.565Z,27.93
2018-02-15T09:54:41.433Z,28.63
2018-02-15T09:57:09.201Z,27.40
2018-02-15T09:59:37.066Z,29.13
2018-02-15T10:02:04.903Z,27.60
2018-02-15T10:04:32.804Z,28.37
2018-02-15T10:07:00.670Z,28.80
2018-02-15T10:09:28.539Z,28.13
2018-02-15T10:11:56.409Z,27.90
2018-02-15T10:14:24.273Z,27.37
2018-02-15T10:16:52.118Z,26.10
2018-02-15T10:19:20.007Z,26.17
2018-02-15T10:21:47.856Z,25.27
2018-02-15T10:24:15.743Z,25.87
2018-02-15T10:26:43.710Z,25.53
2018-02-15T10:29:11.577Z,26.33
2018-02-15T10:31:39.436Z,27.17
2018-02-15T10:34:07.423Z,26.07
2018-02-15T10:36:35.285Z,26.73
2018-02-15T10:39:03.096Z,25.33
2018-02-15T10:41:30.810Z,25.87
2018-02-15T10:43:58.531Z,24.83
2018-02-15T10:46:26.248Z,23.93
2018-02-15T10:48:53.967Z,24.93
2018-02-15T10:51:21.688Z,26.67
2018-02-15T10:53:49.538Z,24.77
2018-02-15T10:56:18.323Z,26.37
2018-02-15T10:58:46.278Z,25.37
2018-02-15T11:01:19.693Z,24.87
2018-02-15T11:06:49.320Z,24.67
2018-02-15T11:09:17.229Z,25.47
2018-02-15T11:11:45.055Z,24.67
2018-02-15T11:14:13.022Z,24.90
2018-02-15T11:16:40.890Z,25.60
2018-02-15T11:19:08.869Z,25.30
2018-02-15T11:21:36.829Z,23.50
2018-02-15T11:24:04.696Z,22.83
2018-02-15T11:26:32.496Z,24.50
2018-02-15T11:29:00.457Z,22.53
2018-02-15T11:31:28.375Z,23.57
2018-02-15T11:33:56.268Z,24.33
2018-02-15T11:36:24.238Z,22.20
2018-02-15T11:38:52.101Z,22.80
2018-02-15T11:41:20.074Z,24.13
2018-02-15T11:43:47.942Z,22.50
2018-02-15T11:46:15.738Z,24.67
2018-02-15T11:48:43.660Z,23.47
2018-02-15T11:51:11.526Z,23.03
2018-02-15T11:53:39.414Z,22.30
2018-02-15T11:56:07.313Z,23.33
2018-02-15T11:58:35.145Z,24.17
2018-02-15T12:01:03.012Z,23.27
2018-02-15T12:03:30.879Z,23.90
2018-02-15T12:05:58.680Z,24.47
2018-02-15T12:08:26.683Z,25.10
2018-02-15T12:10:54.585Z,23.23
2018-02-15T12:13:22.415Z,23.20
2018-02-15T12:15:50.150Z,26.33
2018-02-15T12:18:17.977Z,24.93
2018-02-15T12:20:46.157Z,24.30
2018-02-15T12:23:14.123Z,23.70
2018-02-15T12:25:42.094Z,24.77
2018-02-15T12:28:10.064Z,23.93
2018-02-15T12:30:37.999Z,25.03
2018-02-15T12:33:05.841Z,23.53
2018-02-15T12:35:33.630Z,26.00
2018-02-15T12:38:01.431Z,22.87
2018-02-15T12:40:29.299Z,25.40
2018-02-15T12:42:56.829Z,26.07
2018-02-15T12:45:24.623Z,23.77
2018-02-15T12:47:52.153Z,24.50
2018-02-15T12:50:19.676Z,24.70
2018-02-15T12:52:47.243Z,25.07
2018-02-15T12:55:14.833Z,23.93
2018-02-15T12:57:42.389Z,25.30
2018-02-15T13:00:09.912Z,24.77
2018-02-15T13:02:37.440Z,25.40
2018-02-15T13:05:05.076Z,24.07
2018-02-15T13:07:32.592Z,24.87
2018-02-15T13:10:00.121Z,25.63
2018-02-15T13:12:39.367Z,25.13
2018-02-15T13:15:18.689Z,25.30
2018-02-15T13:17:46.218Z,23.87
2018-02-15T13:20:19.649Z,25.00
2018-02-15T13:22:47.869Z,26.07
2018-02-15T13:25:15.436Z,26.43
2018-02-15T13:27:54.829Z,25.47
2018-02-15T13:30:22.444Z,25.63
2018-02-15T13:32:49.972Z,25.17
2018-02-15T13:35:17.498Z,24.20
2018-02-15T13:37:45.005Z,26.53
2018-02-15T13:40:12.526Z,25.80
2018-02-15T13:42:40.045Z,27.37
2018-02-15T13:45:07.563Z,24.93
2018-02-15T13:47:35.087Z,25.67
2018-02-15T13:50:02.725Z,25.73
2018-02-15T13:52:30.247Z,24.93
2018-02-15T13:54:57.770Z,24.03
2018-02-15T13:57:25.299Z,24.80
2018-02-15T13:59:52.839Z,23.47
2018-02-15T14:02:20.361Z,23.53
2018-02-15T14:04:47.876Z,23.70
2018-02-15T14:07:15.399Z,22.77
2018-02-15T14:09:42.907Z,23.87
2018-02-15T14:12:10.421Z,23.17
2018-02-15T14:14:38.029Z,23.57
2018-02-15T14:17:05.549Z,24.07
2018-02-15T14:19:33.074Z,22.63
2018-02-15T14:22:00.589Z,23.00
2018-02-15T14:24:28.108Z,23.47
2018-02-15T14:26:55.653Z,23.00
2018-02-15T14:29:23.167Z,21.70
2018-02-15T14:31:50.682Z,22.07
2018-02-15T14:34:18.288Z,21.73
2018-02-15T14:36:45.844Z,23.40
2018-02-15T14:39:13.354Z,21.97
2018-02-15T14:41:40.866Z,20.43
2018-02-15T14:44:08.389Z,21.60
2018-02-15T14:46:35.985Z,23.43
2018-02-15T14:49:03.501Z,21.90
2018-02-15T14:51:31.019Z,21.30
2018-02-15T14:53:58.541Z,22.50
2018-02-15T14:56:26.062Z,21.00
2018-02-15T14:58:53.669Z,21.77
2018-02-15T15:01:21.186Z,25.10
2018-02-15T15:03:48.715Z,22.27
2018-02-15T15:06:16.237Z,22.47
2018-02-15T15:08:43.755Z,20.67
2018-02-15T15:11:11.279Z,22.00
2018-02-15T15:13:38.796Z,22.07
2018-02-15T15:16:06.316Z,22.27
2018-02-15T15:18:33.829Z,22.27
2018-02-15T15:21:01.349Z,19.97
2018-02-15T15:23:28.868Z,21.93
2018-02-15T15:25:56.432Z,20.83
2018-02-15T15:28:23.941Z,21.40
2018-02-15T15:30:51.477Z,21.20
2018-02-15T15:33:19.116Z,20.83
2018-02-15T15:35:46.692Z,20.77
2018-02-15T15:38:14.200Z,20.03
2018-02-15T15:40:41.728Z,20.57
2018-02-15T15:43:09.238Z,22.37
2018-02-15T15:45:36.771Z,19.87
2018-02-15T15:48:04.307Z,20.60
2018-02-15T15:50:31.946Z,20.07
2018-02-15T15:52:59.511Z,21.43
2018-02-15T15:55:27.021Z,22.00
2018-02-15T15:57:54.544Z,21.10
2018-02-15T16:00:22.091Z,20.03
2018-02-15T16:02:49.629Z,19.37
2018-02-15T16:05:17.139Z,20.77
2018-02-15T16:07:44.651Z,20.00
2018-02-15T16:10:12.209Z,20.73
2018-02-15T16:12:39.716Z,20.83
2018-02-15T16:15:07.263Z,20.40
2018-02-15T16:17:34.770Z,20.90
2018-02-15T16:20:02.285Z,20.03
2018-02-15T16:22:29.800Z,20.30
2018-02-15T16:24:57.316Z,19.60
2018-02-15T16:27:24.836Z,21.30
2018-02-15T16:29:52.348Z,20.53
2018-02-15T16:32:19.886Z,19.67
2018-02-15T16:34:47.510Z,18.80
2018-02-15T16:37:15.018Z,20.90
2018-02-15T16:39:42.546Z,19.30
2018-02-15T16:42:10.089Z,19.27
2018-02-15T16:44:37.616Z,19.93
2018-02-15T16:47:05.168Z,19.97
2018-02-15T16:49:32.757Z,20.03
2018-02-15T16:52:00.267Z,19.87
2018-02-15T16:54:27.788Z,19.77
2018-02-15T16:56:55.360Z,20.23
2018-02-15T16:59:22.908Z,19.33
2018-02-15T17:01:50.424Z,18.87
2018-02-15T17:04:18.031Z,19.77
2018-02-15T17:06:45.585Z,19.03
2018-02-15T17:09:13.128Z,19.00
2018-02-15T17:11:40.640Z,19.57
2018-02-15T17:14:08.167Z,18.80
2018-02-15T17:16:35.838Z,18.53
2018-02-15T17:19:03.359Z,18.33
2018-02-15T17:21:30.936Z,18.40
2018-02-15T17:23:58.500Z,18.47
2018-02-15T17:26:26.036Z,17.83
2018-02-15T17:28:53.745Z,19.37
2018-02-15T17:31:21.532Z,17.97
2018-02-15T17:33:49.376Z,17.87
2018-02-15T17:36:17.065Z,18.80
2018-02-15T17:38:44.698Z,19.50
2018-02-15T17:41:12.457Z,18.50
2018-02-15T17:43:40.004Z,19.10
2018-02-15T17:46:07.578Z,18.00
2018-02-15T17:48:35.091Z,18.77
2018-02-15T17:51:02.618Z,18.80
2018-02-15T17:53:30.268Z,18.57
2018-02-15T17:55:58.429Z,16.73
2018-02-15T17:58:25.994Z,19.00
2018-02-15T18:00:53.544Z,18.43
2018-02-15T18:03:21.110Z,18.27
2018-02-15T18:05:48.672Z,19.03
2018-02-15T18:08:16.179Z,19.33
2018-02-15T18:10:43.794Z,17.97
2018-02-15T18:13:11.322Z,19.10
2018-02-15T18:15:38.880Z,19.53
2018-02-15T18:18:06.420Z,19.60
2018-02-15T18:20:33.984Z,20.27
2018-02-15T18:23:01.500Z,18.50
2018-02-15T18:25:29.181Z,18.73
2018-02-15T18:27:56.711Z,19.70
2018-02-15T18:30:24.225Z,18.87
2018-02-15T18:32:51.734Z,20.00
2018-02-15T18:35:19.520Z,19.43
2018-02-15T18:37:47.033Z,18.73
2018-02-15T18:40:14.549Z,18.77
2018-02-15T18:42:42.084Z,18.10
2018-02-15T18:45:09.617Z,17.87
2018-02-15T18:47:37.168Z,18.23
2018-02-15T18:50:04.747Z,18.03
2018-02-15T18:52:32.265Z,18.13
2018-02-15T18:54:59.858Z,17.83
2018-02-15T18:57:27.385Z,17.53
2018-02-15T18:59:54.976Z,18.07
2018-02-15T19:02:22.493Z,17.60
2018-02-15T19:04:50.119Z,17.10
2018-02-15T19:07:17.636Z,18.03
2018-02-15T19:09:45.185Z,19.27
2018-02-15T19:12:12.701Z,17.93
2018-02-15T19:14:40.244Z,19.40
2018-02-15T19:17:07.804Z,19.17
2018-02-15T19:19:35.316Z,18.17
2018-02-15T19:22:02.829Z,19.13
2018-02-15T19:24:30.385Z,18.83
2018-02-15T19:26:57.896Z,18.67
2018-02-15T19:29:25.501Z,19.83
2018-02-15T19:31:53.210Z,18.10
2018-02-15T19:34:20.826Z,19.13
2018-02-15T19:36:48.396Z,19.00
2018-02-15T19:39:15.927Z,18.63
2018-02-15T19:41:43.506Z,18.97
2018-02-15T19:44:11.028Z,18.80
2018-02-15T19:46:38.629Z,17.50
2018-02-15T19:49:06.253Z,17.60
2018-02-15T19:51:33.969Z,16.37
2018-02-15T19:54:01.485Z,16.47
2018-02-15T19:56:29.004Z,16.50
2018-02-15T19:58:56.638Z,16.57
2018-02-15T20:01:24.192Z,16.13
2018-02-15T20:03:51.724Z,15.77
2018-02-15T20:06:19.244Z,15.83
2018-02-15T20:08:46.769Z,17.10
2018-02-15T20:11:14.281Z,16.80
2018-02-15T20:13:41.882Z,16.23
2018-02-15T20:16:09.392Z,16.37
2018-02-15T20:18:37.002Z,16.13
2018-02-15T20:21:04.531Z,15.83
2018-02-15T20:23:32.052Z,16.70
2018-02-15T20:26:05.148Z,15.27
2018-02-15T20:28:32.689Z,15.63
2018-02-15T20:31:00.207Z,16.00
2018-02-15T20:33:27.720Z,15.73
2018-02-15T20:35:55.243Z,16.37
2018-02-15T20:38:28.436Z,15.33
2018-02-15T20:40:55.952Z,15.63
2018-02-15T20:43:23.478Z,15.70
2018-02-15T20:45:51.033Z,15.37
2018-02-15T20:48:18.554Z,16.00
2018-02-15T20:50:51.744Z,16.80
2018-02-15T20:53:24.841Z,16.20
2018-02-15T20:55:52.416Z,15.97
2018-02-15T20:58:19.929Z,16.60
2018-02-15T21:00:47.449Z,17.77
2018-02-15T21:03:14.961Z,17.17
2018-02-15T21:05:42.574Z,16.67
2018-02-15T21:08:10.090Z,16.87
2018-02-15T21:10:37.627Z,17.87
2018-02-15T21:13:05.153Z,17.13
2018-02-15T21:15:32.706Z,17.57
2018-02-15T21:18:00.225Z,17.37
2018-02-15T21:20:27.760Z,18.40
2018-02-15T21:22:55.324Z,18.23
2018-02-15T21:25:22.844Z,18.17
2018-02-15T21:27:50.363Z,18.50
2018-02-15T21:30:17.895Z,18.80
2018-02-15T21:32:45.421Z,18.83
2018-02-15T21:35:12.981Z,19.67
2018-02-15T21:37:40.498Z,19.33
2018-02-15T21:40:08.049Z,20.03
2018-02-15T21:42:35.591Z,20.13
2018-02-15T21:45:03.117Z,19.20
2018-02-15T21:47:30.634Z,18.17
2018-02-15T21:49:58.256Z,19.17
2018-02-15T21:52:25.775Z,20.23
2018-02-15T21:54:53.284Z,19.93
2018-02-15T21:57:20.804Z,19.87
2018-02-15T21:59:48.321Z,20.07
2018-02-15T22:02:15.847Z,19.70
2018-02-15T22:04:43.412Z,20.70
2018-02-15T22:07:10.931Z,20.70
2018-02-15T22:09:38.513Z,19.87
2018-02-15T22:12:06.040Z,19.63
2018-02-15T22:14:33.589Z,20.97
2018-02-15T22:17:01.116Z,21.30
2018-02-15T22:19:28.639Z,20.43
2018-02-15T22:21:56.164Z,21.30
2018-02-15T22:24:23.680Z,21.17
2018-02-15T22:26:51.202Z,21.70
2018-02-15T22:29:18.712Z,20.70
2018-02-15T22:31:46.455Z,21.57
2018-02-15T22:34:14.015Z,21.50
2018-02-15T22:36:41.672Z,22.60
2018-02-15T22:39:09.184Z,22.33
2018-02-15T22:41:36.699Z,23.17
2018-02-15T22:44:04.227Z,21.23
2018-02-15T22:46:31.740Z,22.73
2018-02-15T22:48:59.376Z,21.57
2018-02-15T22:51:26.890Z,29.60
2018-02-15T22:53:54.398Z,24.50
2018-02-15T22:56:21.921Z,23.47
2018-02-15T22:58:49.432Z,22.70
2018-02-15T23:01:16.969Z,22.40
2018-02-15T23:03:44.496Z,21.63
2018-02-15T23:06:12.013Z,22.90
2018-02-15T23:08:39.533Z,21.87
2018-02-15T23:11:07.110Z,23.03
2018-02-15T23:13:34.665Z,23.37
2018-02-15T23:16:02.184Z,22.27
2018-02-15T23:18:29.782Z,22.33
2018-02-15T23:20:57.337Z,22.87
2018-02-15T23:23:24.848Z,22.33
2018-02-15T23:25:52.369Z,21.93
2018-02-15T23:28:19.894Z,22.07
2018-02-15T23:30:47.417Z,23.60
2018-02-15T23:33:14.999Z,22.70
2018-02-15T23:35:42.536Z,22.47
2018-02-15T23:38:10.160Z,22.20
2018-02-15T23:40:37.690Z,23.37
2018-02-15T23:43:05.249Z,24.10
2018-02-15T23:45:32.772Z,23.20
2018-02-15T23:48:00.392Z,22.43
2018-02-15T23:50:27.929Z,23.73
2018-02-15T23:52:55.448Z,24.53
2018-02-15T23:55:23.086Z,24.03
2018-02-15T23:57:50.597Z,23.67
